This is the latest recevied weather packets stored in our database for station/object IU2RPR-3. If no packets are shown the sender has not sent any weather packets the latest 10 day(s).
| Time | Temp. | Humidity | Pressure | Rain* | Wind** | Luminosity | Snow |
|---|---|---|---|---|---|---|---|
| 1788379890 | 24.44° C | 59% | 1016.5 hPa | - | - | - | - |
| 1788377487 | 25.56° C | 57% | 1016.1 hPa | - | - | - | - |
| 1788376286 | 26.11° C | 54% | 1016 hPa | - | - | - | - |
| 1788375085 | 26.67° C | 54% | 1015.7 hPa | - | - | - | - |
| 1788373884 | 27.78° C | 50% | 1015.4 hPa | - | - | - | - |
| 1788372682 | 27.78° C | 49% | 1015.2 hPa | - | - | - | - |
| 1788371481 | 27.78° C | 49% | 1015.1 hPa | - | - | - | - |
| 1788369881 | 31.11° C | 41% | 1014.8 hPa | - | - | - | - |
| 1788368680 | 28.33° C | 47% | 1014.9 hPa | - | - | - | - |
| 1788365073 | 33.33° C | 36% | 1014.8 hPa | - | - | - | - |
| 1788363869 | 32.22° C | 37% | 1015.1 hPa | - | - | - | - |
| 1788362667 | 32.78° C | 39% | 1015.1 hPa | - | - | - | - |
| 1788359063 | 32.22° C | 40% | 1015.6 hPa | - | - | - | - |
| 1788355456 | 30° C | 43% | 1016.5 hPa | - | - | - | - |
| 1788354254 | 30° C | 44% | 1016.8 hPa | - | - | - | - |
| 1788351851 | 31.67° C | 43% | 1017 hPa | - | - | - | - |
| 1788349448 | 30° C | 45% | 1017.6 hPa | - | - | - | - |
| 1788348246 | 30° C | 44% | 1017.6 hPa | - | - | - | - |
| 1788347044 | 28.89° C | 46% | 1017.9 hPa | - | - | - | - |
| 1788344642 | 27.78° C | 45% | 1018.2 hPa | - | - | - | - |
| 1788343437 | 26.67° C | 46% | 1018.5 hPa | - | - | - | - |
| 1788342230 | 26.67° C | 47% | 1018.5 hPa | - | - | - | - |
| 1788341028 | 26.67° C | 48% | 1018.6 hPa | - | - | - | - |
| 1788339826 | 26.11° C | 47% | 1018.6 hPa | - | - | - | - |
| 1788338625 | 26.11° C | 49% | 1018.8 hPa | - | - | - | - |
* Rain since midnight (hover to see other rain measurements)
** Current wind speed in m/s (hover to see current wind gust speed)